PWSweather.com
Personal Weather Stations
Station Observations
PENICUIKWS
PenicuikGB

PenicuikGB

Lat: 55.830932, Lon: -3.224533000000065

Elevation: 166

Station Type: Fine Offset

http://weather.penicuik.org

High Low Average
Temperature 41.2°F5.1°C 26.8°F-2.9°C 35.3°F1.8°C
Dew Point 36.0°F2.2°C 22.3°F-5.4°C 30.3°F-0.9°C
Winds 10.5 mph 16.9 kmh Calm Calm 3.0 mph S4.8 kmh S
Wind Gusts 15.9 mph25.6 kmh -- 5.0 mph8.0 kmh
Humidity 91% 72% 82%
Pressure 30.00 in1015.9 mb 29.53 in1000.0 mb -
Precipitation 0.00 in0.0 mm - -
Hour Temp Dew Point Humidity Winds Wind Gusts Pressure Precip Precip Rate Daily Precip Total
12:00 AM 37.6°F3.1°C 31.7°F-0.2°C 79% 8.6 mph SSW13.8 kmh SSW 10.7 mph17.2 kmh 30.00 in1015.9 mb 0.00 in0.0 mm 0.00 in0.0 mm 0.00 in0.0 mm
12:15 AM 37.4°F3.0°C 31.5°F-0.3°C 79% 5.5 mph S8.9 kmh S 9.8 mph15.8 kmh 29.99 in1015.6 mb 0.00 in0.0 mm 0.00 in0.0 mm 0.00 in0.0 mm
12:30 AM 36.9°F2.7°C 30.0°F-1.1°C 76% 3.4 mph ESE5.5 kmh ESE 6.0 mph9.7 kmh 29.98 in1015.2 mb 0.00 in0.0 mm 0.00 in0.0 mm 0.00 in0.0 mm
12:45 AM 36.7°F2.6°C 30.5°F-0.8°C 78% 3.8 mph SSW6.1 kmh SSW 7.6 mph12.2 kmh 29.97 in1014.9 mb 0.00 in0.0 mm 0.00 in0.0 mm 0.00 in0.0 mm
01:00 AM 37.0°F2.8°C 31.1°F-0.5°C 79% 3.7 mph SW6.0 kmh SW 6.0 mph9.7 kmh 29.96 in1014.6 mb 0.00 in0.0 mm 0.00 in0.0 mm 0.00 in0.0 mm
01:15 AM 37.4°F3.0°C 32.7°F0.4°C 83% 5.2 mph S8.4 kmh S 12.1 mph19.5 kmh 29.95 in1014.2 mb 0.00 in0.0 mm 0.00 in0.0 mm 0.00 in0.0 mm
01:30 AM 37.0°F2.8°C 31.1°F-0.5°C 79% 3.1 mph W5.0 kmh W 6.9 mph11.1 kmh 29.93 in1013.5 mb 0.00 in0.0 mm 0.00 in0.0 mm 0.00 in0.0 mm
01:45 AM 37.4°F3.0°C 32.7°F0.4°C 83% 5.1 mph NW8.2 kmh NW 7.6 mph12.2 kmh 29.93 in1013.5 mb 0.00 in0.0 mm 0.00 in0.0 mm 0.00 in0.0 mm
02:00 AM 37.4°F3.0°C 32.7°F0.4°C 83% 2.1 mph WSW3.4 kmh WSW 3.8 mph6.1 kmh 29.93 in1013.5 mb 0.00 in0.0 mm 0.00 in0.0 mm 0.00 in0.0 mm
02:15 AM 37.4°F3.0°C 32.7°F0.4°C 83% 4.0 mph ENE6.4 kmh ENE 6.0 mph9.7 kmh 29.92 in1013.2 mb 0.00 in0.0 mm 0.00 in0.0 mm 0.00 in0.0 mm
02:30 AM 37.0°F2.8°C 31.1°F-0.5°C 79% 4.4 mph S7.1 kmh S 5.4 mph8.7 kmh 29.92 in1013.2 mb 0.00 in0.0 mm 0.00 in0.0 mm 0.00 in0.0 mm
02:45 AM 36.9°F2.7°C 31.0°F-0.6°C 79% 3.9 mph SW6.3 kmh SW 5.4 mph8.7 kmh 29.91 in1012.9 mb 0.00 in0.0 mm 0.00 in0.0 mm 0.00 in0.0 mm
03:00 AM 36.7°F2.6°C 30.8°F-0.7°C 79% 3.7 mph S6.0 kmh S 5.4 mph8.7 kmh 29.91 in1012.9 mb 0.00 in0.0 mm 0.00 in0.0 mm 0.00 in0.0 mm
03:15 AM 36.3°F2.4°C 30.4°F-0.9°C 79% 2.5 mph S4.0 kmh S 4.5 mph7.2 kmh 29.90 in1012.5 mb 0.00 in0.0 mm 0.00 in0.0 mm 0.00 in0.0 mm
03:30 AM 35.6°F2.0°C 29.7°F-1.3°C 79% 1.3 mph WSW2.1 kmh WSW 2.2 mph3.5 kmh 29.89 in1012.2 mb 0.00 in0.0 mm 0.00 in0.0 mm 0.00 in0.0 mm
03:45 AM 35.1°F1.7°C 29.8°F-1.2°C 81% 1.8 mph NNE2.9 kmh NNE 3.8 mph6.1 kmh 29.89 in1012.2 mb 0.00 in0.0 mm 0.00 in0.0 mm 0.00 in0.0 mm
04:00 AM 33.8°F1.0°C 28.3°F-2.1°C 80% 0.9 mph S1.4 kmh S 2.2 mph3.5 kmh 29.89 in1012.2 mb 0.00 in0.0 mm 0.00 in0.0 mm 0.00 in0.0 mm
04:15 AM 32.5°F0.3°C 27.4°F-2.6°C 81% 0.2 mph N0.3 kmh N 1.6 mph2.6 kmh 29.88 in1011.9 mb 0.00 in0.0 mm 0.00 in0.0 mm 0.00 in0.0 mm
04:30 AM 31.6°F-0.2°C 26.8°F-2.9°C 82% 0.6 mph S1.0 kmh S 0.7 mph1.1 kmh 29.87 in1011.5 mb 0.00 in0.0 mm 0.00 in0.0 mm 0.00 in0.0 mm
04:45 AM 31.1°F-0.5°C 26.6°F-3.0°C 83% 0.8 mph S1.3 kmh S 1.6 mph2.6 kmh 29.86 in1011.2 mb 0.00 in0.0 mm 0.00 in0.0 mm 0.00 in0.0 mm
05:00 AM 30.4°F-0.9°C 25.9°F-3.4°C 83% 0.2 mph S0.3 kmh S 0.7 mph1.1 kmh 29.86 in1011.2 mb 0.00 in0.0 mm 0.00 in0.0 mm 0.00 in0.0 mm
05:15 AM 29.8°F-1.2°C 25.9°F-3.4°C 85% 1.0 mph S1.6 kmh S 2.2 mph3.5 kmh 29.84 in1010.5 mb 0.00 in0.0 mm 0.00 in0.0 mm 0.00 in0.0 mm
05:30 AM 29.3°F-1.5°C 25.4°F-3.7°C 85% 0.8 mph S1.3 kmh S 1.6 mph2.6 kmh 29.85 in1010.8 mb 0.00 in0.0 mm 0.00 in0.0 mm 0.00 in0.0 mm
05:45 AM 29.1°F-1.6°C 25.2°F-3.8°C 85% 0.5 mph S0.8 kmh S 1.6 mph2.6 kmh 29.84 in1010.5 mb 0.00 in0.0 mm 0.00 in0.0 mm 0.00 in0.0 mm
06:00 AM 28.8°F-1.8°C 24.8°F-4.0°C 85% 0.2 mph S0.3 kmh S 1.6 mph2.6 kmh 29.84 in1010.5 mb 0.00 in0.0 mm 0.00 in0.0 mm 0.00 in0.0 mm
06:15 AM 28.6°F-1.9°C 24.9°F-3.9°C 86% 0.2 mph S0.3 kmh S 1.6 mph2.6 kmh 29.82 in1009.8 mb 0.00 in0.0 mm 0.00 in0.0 mm 0.00 in0.0 mm
06:30 AM 28.4°F-2.0°C 24.8°F-4.0°C 86% 0.5 mph S0.8 kmh S 1.6 mph2.6 kmh 29.82 in1009.8 mb 0.00 in0.0 mm 0.00 in0.0 mm 0.00 in0.0 mm
06:45 AM 28.2°F-2.1°C 23.5°F-4.7°C 82% 0.3 mph SSW0.5 kmh SSW 1.6 mph2.6 kmh 29.80 in1009.1 mb 0.00 in0.0 mm 0.00 in0.0 mm 0.00 in0.0 mm
07:00 AM 28.0°F-2.2°C 23.3°F-4.8°C 82% 0.6 mph S1.0 kmh S 1.6 mph2.6 kmh 29.81 in1009.5 mb 0.00 in0.0 mm 0.00 in0.0 mm 0.00 in0.0 mm
07:15 AM 27.7°F-2.4°C 22.9°F-5.1°C 82% 0.4 mph SSW0.6 kmh SSW 1.6 mph2.6 kmh 29.80 in1009.1 mb 0.00 in0.0 mm 0.00 in0.0 mm 0.00 in0.0 mm
07:30 AM 27.5°F-2.5°C 23.0°F-5.0°C 83% 0.3 mph N0.5 kmh N 0.7 mph1.1 kmh 29.80 in1009.1 mb 0.00 in0.0 mm 0.00 in0.0 mm 0.00 in0.0 mm
07:45 AM 27.3°F-2.6°C 22.9°F-5.1°C 83% 0.5 mph S0.8 kmh S 1.6 mph2.6 kmh 29.79 in1008.8 mb 0.00 in0.0 mm 0.00 in0.0 mm 0.00 in0.0 mm
08:00 AM 27.1°F-2.7°C 22.7°F-5.2°C 83% 1.1 mph SSW1.8 kmh SSW 1.6 mph2.6 kmh 29.79 in1008.8 mb 0.00 in0.0 mm 0.00 in0.0 mm 0.00 in0.0 mm
08:15 AM 27.3°F-2.6°C 22.9°F-5.1°C 83% 0.6 mph SE1.0 kmh SE 2.2 mph3.5 kmh 29.78 in1008.5 mb 0.00 in0.0 mm 0.00 in0.0 mm 0.00 in0.0 mm
08:30 AM 27.3°F-2.6°C 22.9°F-5.1°C 83% 1.3 mph SSW2.1 kmh SSW 2.2 mph3.5 kmh 29.79 in1008.8 mb 0.00 in0.0 mm 0.00 in0.0 mm 0.00 in0.0 mm
08:45 AM 26.8°F-2.9°C 22.3°F-5.4°C 83% 1.2 mph SSE1.9 kmh SSE 2.2 mph3.5 kmh 29.78 in1008.5 mb 0.00 in0.0 mm 0.00 in0.0 mm 0.00 in0.0 mm
09:00 AM 26.8°F-2.9°C 22.3°F-5.4°C 83% 0.4 mph NW0.6 kmh NW 0.7 mph1.1 kmh 29.78 in1008.5 mb 0.00 in0.0 mm 0.00 in0.0 mm 0.00 in0.0 mm
09:15 AM 27.3°F-2.6°C 23.2°F-4.9°C 84% 1.5 mph S2.4 kmh S 3.8 mph6.1 kmh 29.76 in1007.8 mb 0.00 in0.0 mm 0.00 in0.0 mm 0.00 in0.0 mm
09:30 AM 27.9°F-2.3°C 23.7°F-4.6°C 84% 0.2 mph SE0.3 kmh SE 1.6 mph2.6 kmh 29.76 in1007.8 mb 0.00 in0.0 mm 0.00 in0.0 mm 0.00 in0.0 mm
09:45 AM 28.4°F-2.0°C 25.3°F-3.7°C 88% 1.3 mph SE2.1 kmh SE 2.2 mph3.5 kmh 29.76 in1007.8 mb 0.00 in0.0 mm 0.00 in0.0 mm 0.00 in0.0 mm
10:00 AM 32.4°F0.2°C 29.2°F-1.6°C 88% 3.4 mph S5.5 kmh S 5.4 mph8.7 kmh 29.75 in1007.5 mb 0.00 in0.0 mm 0.00 in0.0 mm 0.00 in0.0 mm
10:15 AM 35.8°F2.1°C 32.6°F0.3°C 88% 5.4 mph S8.7 kmh S 9.2 mph14.8 kmh 29.75 in1007.5 mb 0.00 in0.0 mm 0.00 in0.0 mm 0.00 in0.0 mm
10:30 AM 37.9°F3.3°C 35.6°F2.0°C 91% 4.8 mph SW7.7 kmh SW 8.3 mph13.4 kmh 29.74 in1007.1 mb 0.00 in0.0 mm 0.00 in0.0 mm 0.00 in0.0 mm
10:45 AM 40.5°F4.7°C 36.0°F2.2°C 84% 3.9 mph SW6.3 kmh SW 7.6 mph12.2 kmh 29.73 in1006.8 mb 0.00 in0.0 mm 0.00 in0.0 mm 0.00 in0.0 mm
11:00 AM 41.0°F5.0°C 34.7°F1.5°C 78% 3.7 mph SSW6.0 kmh SSW 10.7 mph17.2 kmh 29.72 in1006.4 mb 0.00 in0.0 mm 0.00 in0.0 mm 0.00 in0.0 mm
11:15 AM 41.0°F5.0°C 33.0°F0.6°C 73% 5.9 mph SSW9.5 kmh SSW 9.8 mph15.8 kmh 29.71 in1006.1 mb 0.00 in0.0 mm 0.00 in0.0 mm 0.00 in0.0 mm
11:30 AM 41.2°F5.1°C 33.5°F0.8°C 74% 5.5 mph ESE8.9 kmh ESE 10.7 mph17.2 kmh 29.69 in1005.4 mb 0.00 in0.0 mm 0.00 in0.0 mm 0.00 in0.0 mm
12:00 PM 41.2°F5.1°C 32.9°F0.5°C 72% 6.3 mph E10.1 kmh E 12.1 mph19.5 kmh 29.68 in1005.1 mb 0.00 in0.0 mm 0.00 in0.0 mm 0.00 in0.0 mm
12:15 PM 40.5°F4.7°C 32.5°F0.3°C 73% 6.8 mph SSW10.9 kmh SSW 9.8 mph15.8 kmh 29.66 in1004.4 mb 0.00 in0.0 mm 0.00 in0.0 mm 0.00 in0.0 mm
12:30 PM 39.0°F3.9°C 32.8°F0.4°C 78% 9.1 mph NNW14.6 kmh NNW 12.1 mph19.5 kmh 29.66 in1004.4 mb 0.00 in0.0 mm 0.00 in0.0 mm 0.00 in0.0 mm
12:45 PM 39.0°F3.9°C 33.4°F0.8°C 80% 5.2 mph E8.4 kmh E 9.2 mph14.8 kmh 29.65 in1004.1 mb 0.00 in0.0 mm 0.00 in0.0 mm 0.00 in0.0 mm
01:00 PM 39.0°F3.9°C 33.7°F0.9°C 81% 7.2 mph S11.6 kmh S 9.2 mph14.8 kmh 29.65 in1004.1 mb 0.00 in0.0 mm 0.00 in0.0 mm 0.00 in0.0 mm
01:15 PM 38.8°F3.8°C 33.5°F0.8°C 81% 7.6 mph S12.2 kmh S 9.8 mph15.8 kmh 29.65 in1004.1 mb 0.00 in0.0 mm 0.00 in0.0 mm 0.00 in0.0 mm
01:30 PM 38.7°F3.7°C 33.7°F0.9°C 82% 7.4 mph WSW11.9 kmh WSW 10.7 mph17.2 kmh 29.63 in1003.4 mb 0.00 in0.0 mm 0.00 in0.0 mm 0.00 in0.0 mm
01:45 PM 38.8°F3.8°C 34.1°F1.2°C 83% 6.4 mph SSW10.3 kmh SSW 9.8 mph15.8 kmh 29.64 in1003.7 mb 0.00 in0.0 mm 0.00 in0.0 mm 0.00 in0.0 mm
02:00 PM 38.7°F3.7°C 34.0°F1.1°C 83% 10.5 mph NW16.9 kmh NW 15.9 mph25.6 kmh 29.62 in1003.0 mb 0.00 in0.0 mm 0.00 in0.0 mm 0.00 in0.0 mm
02:15 PM 39.0°F3.9°C 34.3°F1.3°C 83% 6.1 mph WSW9.8 kmh WSW 7.6 mph12.2 kmh 29.62 in1003.0 mb 0.00 in0.0 mm 0.00 in0.0 mm 0.00 in0.0 mm
02:30 PM 39.2°F4.0°C 33.9°F1.1°C 81% 3.1 mph NNW5.0 kmh NNW 4.5 mph7.2 kmh 29.61 in1002.7 mb 0.00 in0.0 mm 0.00 in0.0 mm 0.00 in0.0 mm
02:45 PM 39.2°F4.0°C 33.9°F1.1°C 81% 2.2 mph S3.5 kmh S 4.5 mph7.2 kmh 29.62 in1003.0 mb 0.00 in0.0 mm 0.00 in0.0 mm 0.00 in0.0 mm
03:00 PM 39.0°F3.9°C 34.0°F1.1°C 82% 0.5 mph W0.8 kmh W 1.6 mph2.6 kmh 29.63 in1003.4 mb 0.00 in0.0 mm 0.00 in0.0 mm 0.00 in0.0 mm
03:15 PM 38.5°F3.6°C 33.5°F0.8°C 82% 0.7 mph NNE1.1 kmh NNE 1.6 mph2.6 kmh 29.61 in1002.7 mb 0.00 in0.0 mm 0.00 in0.0 mm 0.00 in0.0 mm
03:30 PM 38.3°F3.5°C 33.3°F0.7°C 82% 1.9 mph SSW3.1 kmh SSW 5.4 mph8.7 kmh 29.60 in1002.4 mb 0.00 in0.0 mm 0.00 in0.0 mm 0.00 in0.0 mm
03:45 PM 38.3°F3.5°C 33.6°F0.9°C 83% 2.1 mph S3.4 kmh S 3.8 mph6.1 kmh 29.59 in1002.0 mb 0.00 in0.0 mm 0.00 in0.0 mm 0.00 in0.0 mm
04:00 PM 38.3°F3.5°C 33.6°F0.9°C 83% 4.2 mph S6.8 kmh S 6.0 mph9.7 kmh 29.59 in1002.0 mb 0.00 in0.0 mm 0.00 in0.0 mm 0.00 in0.0 mm
04:15 PM 38.3°F3.5°C 33.9°F1.1°C 84% 7.4 mph S11.9 kmh S 11.4 mph18.3 kmh 29.59 in1002.0 mb 0.00 in0.0 mm 0.00 in0.0 mm 0.00 in0.0 mm
04:30 PM 38.3°F3.5°C 33.9°F1.1°C 84% 6.2 mph S10.0 kmh S 11.4 mph18.3 kmh 29.59 in1002.0 mb 0.00 in0.0 mm 0.00 in0.0 mm 0.00 in0.0 mm
04:45 PM 38.5°F3.6°C 34.1°F1.2°C 84% 5.1 mph S8.2 kmh S 8.3 mph13.4 kmh 29.58 in1001.7 mb 0.00 in0.0 mm 0.00 in0.0 mm 0.00 in0.0 mm
05:00 PM 38.5°F3.6°C 34.1°F1.2°C 84% 6.0 mph S9.7 kmh S 8.3 mph13.4 kmh 29.57 in1001.4 mb 0.00 in0.0 mm 0.00 in0.0 mm 0.00 in0.0 mm
05:45 PM 38.3°F3.5°C 33.9°F1.1°C 84% 3.9 mph S6.3 kmh S 5.4 mph8.7 kmh 29.58 in1001.7 mb 0.00 in0.0 mm 0.00 in0.0 mm 0.00 in0.0 mm
06:00 PM 38.3°F3.5°C 33.9°F1.1°C 84% 3.5 mph S5.6 kmh S 6.0 mph9.7 kmh 29.57 in1001.4 mb 0.00 in0.0 mm 0.00 in0.0 mm 0.00 in0.0 mm
06:15 PM 38.3°F3.5°C 33.9°F1.1°C 84% 4.1 mph SSE6.6 kmh SSE 7.6 mph12.2 kmh 29.56 in1001.0 mb 0.00 in0.0 mm 0.00 in0.0 mm 0.00 in0.0 mm
06:30 PM 38.3°F3.5°C 33.6°F0.9°C 83% 1.7 mph S2.7 kmh S 3.8 mph6.1 kmh 29.56 in1001.0 mb 0.00 in0.0 mm 0.00 in0.0 mm 0.00 in0.0 mm
06:45 PM 38.3°F3.5°C 33.6°F0.9°C 83% 5.3 mph SSE8.5 kmh SSE 7.6 mph12.2 kmh 29.56 in1001.0 mb 0.00 in0.0 mm 0.00 in0.0 mm 0.00 in0.0 mm
07:00 PM 38.3°F3.5°C 33.6°F0.9°C 83% 3.5 mph S5.6 kmh S 5.4 mph8.7 kmh 29.56 in1001.0 mb 0.00 in0.0 mm 0.00 in0.0 mm 0.00 in0.0 mm
07:30 PM 37.2°F2.9°C 31.3°F-0.4°C 79% 0.6 mph WSW1.0 kmh WSW 3.1 mph5.0 kmh 29.56 in1001.0 mb 0.00 in0.0 mm 0.00 in0.0 mm 0.00 in0.0 mm
08:00 PM 36.9°F2.7°C 31.3°F-0.4°C 80% 0.2 mph S0.3 kmh S 0.7 mph1.1 kmh 29.57 in1001.4 mb 0.00 in0.0 mm 0.00 in0.0 mm 0.00 in0.0 mm
08:15 PM 36.5°F2.5°C 30.9°F-0.6°C 80% 0.9 mph N1.4 kmh N 2.2 mph3.5 kmh 29.56 in1001.0 mb 0.00 in0.0 mm 0.00 in0.0 mm 0.00 in0.0 mm
08:30 PM 36.9°F2.7°C 31.6°F-0.2°C 81% 2.0 mph SSW3.2 kmh SSW 5.4 mph8.7 kmh 29.56 in1001.0 mb 0.00 in0.0 mm 0.00 in0.0 mm 0.00 in0.0 mm
08:45 PM 36.9°F2.7°C 31.6°F-0.2°C 81% 1.8 mph S2.9 kmh S 3.8 mph6.1 kmh 29.55 in1000.7 mb 0.00 in0.0 mm 0.00 in0.0 mm 0.00 in0.0 mm
09:15 PM 36.9°F2.7°C 31.6°F-0.2°C 81% 0.9 mph SE1.4 kmh SE 3.1 mph5.0 kmh 29.55 in1000.7 mb 0.00 in0.0 mm 0.00 in0.0 mm 0.00 in0.0 mm
09:45 PM 36.7°F2.6°C 31.4°F-0.3°C 81% Calm Calm -- 29.55 in1000.7 mb 0.00 in0.0 mm 0.00 in0.0 mm 0.00 in0.0 mm
10:00 PM 36.5°F2.5°C 31.2°F-0.4°C 81% 1.0 mph N1.6 kmh N 1.6 mph2.6 kmh 29.55 in1000.7 mb 0.00 in0.0 mm 0.00 in0.0 mm 0.00 in0.0 mm
10:15 PM 36.5°F2.5°C 31.2°F-0.4°C 81% 1.1 mph N1.8 kmh N 2.2 mph3.5 kmh 29.54 in1000.3 mb 0.00 in0.0 mm 0.00 in0.0 mm 0.00 in0.0 mm
10:30 PM 36.5°F2.5°C 31.5°F-0.3°C 82% 0.9 mph SSW1.4 kmh SSW 1.6 mph2.6 kmh 29.54 in1000.3 mb 0.00 in0.0 mm 0.00 in0.0 mm 0.00 in0.0 mm
10:45 PM 36.3°F2.4°C 31.4°F-0.3°C 82% 2.0 mph SSE3.2 kmh SSE 3.1 mph5.0 kmh 29.53 in1000.0 mb 0.00 in0.0 mm 0.00 in0.0 mm 0.00 in0.0 mm
11:00 PM 36.1°F2.3°C 31.2°F-0.4°C 82% 3.1 mph NE5.0 kmh NE 4.5 mph7.2 kmh 29.53 in1000.0 mb 0.00 in0.0 mm 0.00 in0.0 mm 0.00 in0.0 mm
11:15 PM 36.1°F2.3°C 31.2°F-0.4°C 82% 3.2 mph NNE5.1 kmh NNE 5.4 mph8.7 kmh 29.54 in1000.3 mb 0.00 in0.0 mm 0.00 in0.0 mm 0.00 in0.0 mm
11:30 PM 35.8°F2.1°C 30.8°F-0.7°C 82% 1.3 mph N2.1 kmh N 3.1 mph5.0 kmh 29.53 in1000.0 mb 0.00 in0.0 mm 0.00 in0.0 mm 0.00 in0.0 mm
11:45 PM 35.6°F2.0°C 30.7°F-0.7°C 82% 0.2 mph S0.3 kmh S 0.7 mph1.1 kmh 29.53 in1000.0 mb 0.00 in0.0 mm 0.00 in0.0 mm 0.00 in0.0 mm